sensor_id;sensor_type;location;lat;lon;timestamp;temperature;humidity
5457;DHT22;2751;49.802;9.944;2023-07-13T00:01:31;21.50;99.90
5457;DHT22;2751;49.802;9.944;2023-07-13T00:03:59;21.60;99.90
5457;DHT22;2751;49.802;9.944;2023-07-13T00:06:26;21.60;99.90
5457;DHT22;2751;49.802;9.944;2023-07-13T00:08:57;21.60;99.90
5457;DHT22;2751;49.802;9.944;2023-07-13T00:11:24;21.50;99.90
5457;DHT22;2751;49.802;9.944;2023-07-13T00:13:51;21.40;99.90
5457;DHT22;2751;49.802;9.944;2023-07-13T00:16:18;21.40;99.90
5457;DHT22;2751;49.802;9.944;2023-07-13T00:18:46;21.30;99.90
5457;DHT22;2751;49.802;9.944;2023-07-13T00:21:13;21.30;99.90
5457;DHT22;2751;49.802;9.944;2023-07-13T00:23:41;21.30;99.90
5457;DHT22;2751;49.802;9.944;2023-07-13T00:26:11;21.30;99.90
5457;DHT22;2751;49.802;9.944;2023-07-13T00:28:39;21.20;99.90
5457;DHT22;2751;49.802;9.944;2023-07-13T00:31:07;21.20;99.90
5457;DHT22;2751;49.802;9.944;2023-07-13T00:33:34;21.10;99.90
5457;DHT22;2751;49.802;9.944;2023-07-13T00:36:01;21.10;99.90
5457;DHT22;2751;49.802;9.944;2023-07-13T00:38:29;21.00;99.90
5457;DHT22;2751;49.802;9.944;2023-07-13T00:40:56;21.00;99.90
5457;DHT22;2751;49.802;9.944;2023-07-13T00:43:26;20.90;99.90
5457;DHT22;2751;49.802;9.944;2023-07-13T00:46:19;20.80;99.90
5457;DHT22;2751;49.802;9.944;2023-07-13T00:48:48;20.70;99.90
5457;DHT22;2751;49.802;9.944;2023-07-13T00:51:19;20.70;99.90
5457;DHT22;2751;49.802;9.944;2023-07-13T00:53:47;20.50;99.90
5457;DHT22;2751;49.802;9.944;2023-07-13T00:56:14;20.40;99.90
5457;DHT22;2751;49.802;9.944;2023-07-13T00:58:43;20.40;99.90
5457;DHT22;2751;49.802;9.944;2023-07-13T01:01:10;20.40;99.90
5457;DHT22;2751;49.802;9.944;2023-07-13T01:03:38;20.30;99.90
5457;DHT22;2751;49.802;9.944;2023-07-13T01:06:06;20.20;99.90
5457;DHT22;2751;49.802;9.944;2023-07-13T01:08:33;20.20;99.90
5457;DHT22;2751;49.802;9.944;2023-07-13T01:11:00;20.10;99.90
5457;DHT22;2751;49.802;9.944;2023-07-13T01:13:27;20.10;99.90
5457;DHT22;2751;49.802;9.944;2023-07-13T01:15:58;20.10;99.90
5457;DHT22;2751;49.802;9.944;2023-07-13T01:18:27;20.10;99.90
5457;DHT22;2751;49.802;9.944;2023-07-13T01:20:56;20.10;99.90
5457;DHT22;2751;49.802;9.944;2023-07-13T01:23:24;20.00;99.90
5457;DHT22;2751;49.802;9.944;2023-07-13T01:25:52;20.00;99.90
5457;DHT22;2751;49.802;9.944;2023-07-13T01:28:21;20.10;99.90
5457;DHT22;2751;49.802;9.944;2023-07-13T01:30:48;20.10;99.90
5457;DHT22;2751;49.802;9.944;2023-07-13T01:33:17;20.10;99.90
5457;DHT22;2751;49.802;9.944;2023-07-13T01:35:44;20.00;99.90
5457;DHT22;2751;49.802;9.944;2023-07-13T01:38:14;19.90;99.90
5457;DHT22;2751;49.802;9.944;2023-07-13T01:40:41;19.70;99.90
5457;DHT22;2751;49.802;9.944;2023-07-13T01:43:09;19.60;99.90
5457;DHT22;2751;49.802;9.944;2023-07-13T01:45:36;19.50;99.90
5457;DHT22;2751;49.802;9.944;2023-07-13T01:48:03;19.40;99.90
5457;DHT22;2751;49.802;9.944;2023-07-13T01:50:32;19.30;99.90
5457;DHT22;2751;49.802;9.944;2023-07-13T01:52:59;19.30;99.90
5457;DHT22;2751;49.802;9.944;2023-07-13T01:55:28;19.30;99.90
5457;DHT22;2751;49.802;9.944;2023-07-13T01:57:56;19.30;99.90
5457;DHT22;2751;49.802;9.944;2023-07-13T02:00:23;19.20;99.90
5457;DHT22;2751;49.802;9.944;2023-07-13T02:02:51;19.20;99.90
5457;DHT22;2751;49.802;9.944;2023-07-13T02:05:18;19.20;99.90
5457;DHT22;2751;49.802;9.944;2023-07-13T02:07:45;19.20;99.90
5457;DHT22;2751;49.802;9.944;2023-07-13T02:10:12;19.20;99.90
5457;DHT22;2751;49.802;9.944;2023-07-13T02:12:41;19.10;99.90
5457;DHT22;2751;49.802;9.944;2023-07-13T02:15:08;19.00;99.90
5457;DHT22;2751;49.802;9.944;2023-07-13T02:17:36;19.00;99.90
5457;DHT22;2751;49.802;9.944;2023-07-13T02:20:04;18.90;99.90
5457;DHT22;2751;49.802;9.944;2023-07-13T02:22:31;18.90;99.90
5457;DHT22;2751;49.802;9.944;2023-07-13T02:24:58;18.90;99.90
5457;DHT22;2751;49.802;9.944;2023-07-13T02:27:25;18.80;99.90
5457;DHT22;2751;49.802;9.944;2023-07-13T02:29:54;18.80;99.90
5457;DHT22;2751;49.802;9.944;2023-07-13T02:32:21;18.80;99.90
5457;DHT22;2751;49.802;9.944;2023-07-13T02:34:48;18.80;99.90
5457;DHT22;2751;49.802;9.944;2023-07-13T02:37:14;18.80;99.90
5457;DHT22;2751;49.802;9.944;2023-07-13T02:39:41;18.70;99.90
5457;DHT22;2751;49.802;9.944;2023-07-13T02:42:08;18.70;99.90
5457;DHT22;2751;49.802;9.944;2023-07-13T02:44:35;18.70;99.90
5457;DHT22;2751;49.802;9.944;2023-07-13T02:47:03;18.70;99.90
5457;DHT22;2751;49.802;9.944;2023-07-13T02:49:30;18.70;99.90
5457;DHT22;2751;49.802;9.944;2023-07-13T02:51:57;18.70;99.90
5457;DHT22;2751;49.802;9.944;2023-07-13T02:54:25;18.70;99.90
5457;DHT22;2751;49.802;9.944;2023-07-13T02:56:52;18.70;99.90
5457;DHT22;2751;49.802;9.944;2023-07-13T02:59:19;18.70;99.90
5457;DHT22;2751;49.802;9.944;2023-07-13T03:01:45;18.70;99.90
5457;DHT22;2751;49.802;9.944;2023-07-13T03:04:14;18.80;99.90
5457;DHT22;2751;49.802;9.944;2023-07-13T03:06:42;18.70;99.90
5457;DHT22;2751;49.802;9.944;2023-07-13T03:09:09;18.70;99.90
5457;DHT22;2751;49.802;9.944;2023-07-13T03:11:38;18.70;99.90
5457;DHT22;2751;49.802;9.944;2023-07-13T03:14:05;18.70;99.90
5457;DHT22;2751;49.802;9.944;2023-07-13T03:16:32;18.60;99.90
5457;DHT22;2751;49.802;9.944;2023-07-13T03:18:58;18.50;99.90
5457;DHT22;2751;49.802;9.944;2023-07-13T03:21:27;18.50;99.90
5457;DHT22;2751;49.802;9.944;2023-07-13T03:23:53;18.50;99.90
5457;DHT22;2751;49.802;9.944;2023-07-13T03:26:20;18.40;99.90
5457;DHT22;2751;49.802;9.944;2023-07-13T03:28:47;18.40;99.90
5457;DHT22;2751;49.802;9.944;2023-07-13T03:31:17;18.40;99.90
5457;DHT22;2751;49.802;9.944;2023-07-13T03:33:44;18.40;99.90
5457;DHT22;2751;49.802;9.944;2023-07-13T03:36:15;18.40;99.90
5457;DHT22;2751;49.802;9.944;2023-07-13T03:38:46;18.40;99.90
5457;DHT22;2751;49.802;9.944;2023-07-13T03:41:13;18.30;99.90
5457;DHT22;2751;49.802;9.944;2023-07-13T03:43:40;18.20;99.90
5457;DHT22;2751;49.802;9.944;2023-07-13T03:46:10;18.20;99.90
5457;DHT22;2751;49.802;9.944;2023-07-13T03:48:38;18.20;99.90
5457;DHT22;2751;49.802;9.944;2023-07-13T03:51:06;18.20;99.90
5457;DHT22;2751;49.802;9.944;2023-07-13T03:53:32;18.20;99.90
5457;DHT22;2751;49.802;9.944;2023-07-13T03:56:01;18.20;99.90
5457;DHT22;2751;49.802;9.944;2023-07-13T03:58:32;18.10;99.90
5457;DHT22;2751;49.802;9.944;2023-07-13T04:01:00;18.00;99.90
5457;DHT22;2751;49.802;9.944;2023-07-13T04:03:28;17.90;99.90
5457;DHT22;2751;49.802;9.944;2023-07-13T04:05:55;17.90;99.90
5457;DHT22;2751;49.802;9.944;2023-07-13T04:08:25;17.80;99.90
5457;DHT22;2751;49.802;9.944;2023-07-13T04:10:53;17.70;99.90
5457;DHT22;2751;49.802;9.944;2023-07-13T04:13:21;17.70;99.90
5457;DHT22;2751;49.802;9.944;2023-07-13T04:15:48;17.80;99.90
5457;DHT22;2751;49.802;9.944;2023-07-13T04:18:15;17.80;99.90
5457;DHT22;2751;49.802;9.944;2023-07-13T04:20:42;17.90;99.90
5457;DHT22;2751;49.802;9.944;2023-07-13T04:23:08;17.90;99.90
5457;DHT22;2751;49.802;9.944;2023-07-13T04:25:36;18.00;99.90
5457;DHT22;2751;49.802;9.944;2023-07-13T04:28:03;18.00;99.90
5457;DHT22;2751;49.802;9.944;2023-07-13T04:30:31;18.10;99.90
5457;DHT22;2751;49.802;9.944;2023-07-13T04:32:58;18.10;99.90
5457;DHT22;2751;49.802;9.944;2023-07-13T04:35:25;18.20;99.90
5457;DHT22;2751;49.802;9.944;2023-07-13T04:37:52;18.30;99.90
5457;DHT22;2751;49.802;9.944;2023-07-13T04:40:20;18.50;99.90
5457;DHT22;2751;49.802;9.944;2023-07-13T04:42:47;18.70;99.90
5457;DHT22;2751;49.802;9.944;2023-07-13T04:45:14;18.80;99.90
5457;DHT22;2751;49.802;9.944;2023-07-13T04:47:44;18.90;99.90
5457;DHT22;2751;49.802;9.944;2023-07-13T04:50:12;19.00;99.90
5457;DHT22;2751;49.802;9.944;2023-07-13T04:52:44;19.00;99.90
5457;DHT22;2751;49.802;9.944;2023-07-13T04:55:11;19.10;99.90
5457;DHT22;2751;49.802;9.944;2023-07-13T04:57:38;19.10;99.90
5457;DHT22;2751;49.802;9.944;2023-07-13T05:00:06;19.10;99.90
5457;DHT22;2751;49.802;9.944;2023-07-13T05:02:34;19.00;99.90
5457;DHT22;2751;49.802;9.944;2023-07-13T05:05:02;19.00;99.90
5457;DHT22;2751;49.802;9.944;2023-07-13T05:07:29;19.00;99.90
5457;DHT22;2751;49.802;9.944;2023-07-13T05:09:58;18.90;99.90
5457;DHT22;2751;49.802;9.944;2023-07-13T05:12:25;18.90;99.90
5457;DHT22;2751;49.802;9.944;2023-07-13T05:14:52;18.90;99.90
5457;DHT22;2751;49.802;9.944;2023-07-13T05:17:19;18.90;99.90
5457;DHT22;2751;49.802;9.944;2023-07-13T05:19:46;18.90;99.90
5457;DHT22;2751;49.802;9.944;2023-07-13T05:22:14;18.90;99.90
5457;DHT22;2751;49.802;9.944;2023-07-13T05:24:41;18.90;99.90
5457;DHT22;2751;49.802;9.944;2023-07-13T05:27:08;18.90;99.90
5457;DHT22;2751;49.802;9.944;2023-07-13T05:29:35;18.90;99.90
5457;DHT22;2751;49.802;9.944;2023-07-13T05:32:02;19.00;99.90
5457;DHT22;2751;49.802;9.944;2023-07-13T05:34:29;19.10;99.90
5457;DHT22;2751;49.802;9.944;2023-07-13T05:36:56;19.20;99.90
5457;DHT22;2751;49.802;9.944;2023-07-13T05:39:24;19.30;99.90
5457;DHT22;2751;49.802;9.944;2023-07-13T05:41:53;19.30;99.90
5457;DHT22;2751;49.802;9.944;2023-07-13T05:44:20;19.40;99.90
5457;DHT22;2751;49.802;9.944;2023-07-13T05:46:47;19.20;99.90
5457;DHT22;2751;49.802;9.944;2023-07-13T05:49:13;19.60;99.90
5457;DHT22;2751;49.802;9.944;2023-07-13T05:51:41;19.60;99.90
5457;DHT22;2751;49.802;9.944;2023-07-13T05:54:08;19.60;99.90
5457;DHT22;2751;49.802;9.944;2023-07-13T05:56:36;19.50;99.90
5457;DHT22;2751;49.802;9.944;2023-07-13T05:59:03;19.50;99.90
5457;DHT22;2751;49.802;9.944;2023-07-13T06:01:30;19.40;99.90
5457;DHT22;2751;49.802;9.944;2023-07-13T06:03:57;19.40;99.90
5457;DHT22;2751;49.802;9.944;2023-07-13T06:06:24;19.50;99.90
5457;DHT22;2751;49.802;9.944;2023-07-13T06:08:51;19.50;99.90
5457;DHT22;2751;49.802;9.944;2023-07-13T06:11:20;19.50;99.90
5457;DHT22;2751;49.802;9.944;2023-07-13T06:13:49;19.60;99.90
5457;DHT22;2751;49.802;9.944;2023-07-13T06:16:16;19.70;99.90
5457;DHT22;2751;49.802;9.944;2023-07-13T06:18:43;19.70;99.90
5457;DHT22;2751;49.802;9.944;2023-07-13T06:21:12;19.70;99.90
5457;DHT22;2751;49.802;9.944;2023-07-13T06:23:39;19.70;99.90
5457;DHT22;2751;49.802;9.944;2023-07-13T06:26:07;19.70;99.90
5457;DHT22;2751;49.802;9.944;2023-07-13T06:28:35;19.80;99.90
5457;DHT22;2751;49.802;9.944;2023-07-13T06:31:05;19.80;99.90
5457;DHT22;2751;49.802;9.944;2023-07-13T06:33:33;20.00;99.90
5457;DHT22;2751;49.802;9.944;2023-07-13T06:36:01;20.10;99.90
5457;DHT22;2751;49.802;9.944;2023-07-13T06:38:28;20.20;99.90
5457;DHT22;2751;49.802;9.944;2023-07-13T06:40:55;20.40;99.90
5457;DHT22;2751;49.802;9.944;2023-07-13T06:43:22;20.60;99.90
5457;DHT22;2751;49.802;9.944;2023-07-13T06:45:51;20.60;99.90
5457;DHT22;2751;49.802;9.944;2023-07-13T06:48:20;20.50;99.90
5457;DHT22;2751;49.802;9.944;2023-07-13T06:50:48;20.50;99.90
5457;DHT22;2751;49.802;9.944;2023-07-13T06:53:17;20.60;99.90
5457;DHT22;2751;49.802;9.944;2023-07-13T06:55:45;20.60;99.90
5457;DHT22;2751;49.802;9.944;2023-07-13T06:58:12;20.70;99.90
5457;DHT22;2751;49.802;9.944;2023-07-13T07:00:39;20.70;99.90
5457;DHT22;2751;49.802;9.944;2023-07-13T07:03:06;20.60;99.90
5457;DHT22;2751;49.802;9.944;2023-07-13T07:05:34;20.80;99.90
5457;DHT22;2751;49.802;9.944;2023-07-13T07:08:01;20.90;99.90
5457;DHT22;2751;49.802;9.944;2023-07-13T07:10:29;21.10;99.90
5457;DHT22;2751;49.802;9.944;2023-07-13T07:12:57;21.30;99.90
5457;DHT22;2751;49.802;9.944;2023-07-13T07:15:23;21.50;99.90
5457;DHT22;2751;49.802;9.944;2023-07-13T07:17:50;21.50;99.90
5457;DHT22;2751;49.802;9.944;2023-07-13T07:20:17;21.50;99.90
5457;DHT22;2751;49.802;9.944;2023-07-13T07:22:45;21.50;99.90
5457;DHT22;2751;49.802;9.944;2023-07-13T07:25:12;21.60;99.90
5457;DHT22;2751;49.802;9.944;2023-07-13T07:27:39;21.70;99.90
5457;DHT22;2751;49.802;9.944;2023-07-13T07:30:07;21.70;99.90
5457;DHT22;2751;49.802;9.944;2023-07-13T07:32:34;21.70;99.90
5457;DHT22;2751;49.802;9.944;2023-07-13T07:35:01;21.70;99.90
5457;DHT22;2751;49.802;9.944;2023-07-13T07:37:28;21.80;99.90
5457;DHT22;2751;49.802;9.944;2023-07-13T07:39:56;21.70;99.90
5457;DHT22;2751;49.802;9.944;2023-07-13T07:42:23;21.90;99.90
5457;DHT22;2751;49.802;9.944;2023-07-13T07:44:50;22.00;99.90
5457;DHT22;2751;49.802;9.944;2023-07-13T07:47:17;22.00;99.90
5457;DHT22;2751;49.802;9.944;2023-07-13T07:49:44;21.90;99.90
5457;DHT22;2751;49.802;9.944;2023-07-13T07:52:11;22.00;99.90
5457;DHT22;2751;49.802;9.944;2023-07-13T07:54:38;22.20;99.90
5457;DHT22;2751;49.802;9.944;2023-07-13T07:57:08;22.20;99.90
5457;DHT22;2751;49.802;9.944;2023-07-13T07:59:36;22.20;99.90
5457;DHT22;2751;49.802;9.944;2023-07-13T08:02:04;22.30;99.90
5457;DHT22;2751;49.802;9.944;2023-07-13T08:04:31;22.40;99.90
5457;DHT22;2751;49.802;9.944;2023-07-13T08:06:59;22.40;99.90
5457;DHT22;2751;49.802;9.944;2023-07-13T08:09:28;22.50;99.90
5457;DHT22;2751;49.802;9.944;2023-07-13T08:11:55;22.60;99.90
5457;DHT22;2751;49.802;9.944;2023-07-13T08:14:24;22.70;99.90
5457;DHT22;2751;49.802;9.944;2023-07-13T08:16:51;22.70;99.90
5457;DHT22;2751;49.802;9.944;2023-07-13T08:19:19;22.80;99.90
5457;DHT22;2751;49.802;9.944;2023-07-13T08:21:46;22.80;99.90
5457;DHT22;2751;49.802;9.944;2023-07-13T08:24:14;22.90;99.90
5457;DHT22;2751;49.802;9.944;2023-07-13T08:26:42;22.80;99.90
5457;DHT22;2751;49.802;9.944;2023-07-13T08:29:09;22.90;99.90
5457;DHT22;2751;49.802;9.944;2023-07-13T08:31:37;23.10;99.90
5457;DHT22;2751;49.802;9.944;2023-07-13T08:34:04;23.10;99.90
5457;DHT22;2751;49.802;9.944;2023-07-13T08:36:31;23.10;99.90
5457;DHT22;2751;49.802;9.944;2023-07-13T08:38:58;23.10;99.90
5457;DHT22;2751;49.802;9.944;2023-07-13T08:41:25;23.20;99.90
5457;DHT22;2751;49.802;9.944;2023-07-13T08:43:56;23.40;99.90
5457;DHT22;2751;49.802;9.944;2023-07-13T08:46:26;24.30;99.90
5457;DHT22;2751;49.802;9.944;2023-07-13T08:48:58;24.90;99.90
5457;DHT22;2751;49.802;9.944;2023-07-13T08:51:33;25.20;99.90
5457;DHT22;2751;49.802;9.944;2023-07-13T08:54:03;25.40;99.90
5457;DHT22;2751;49.802;9.944;2023-07-13T08:56:32;25.80;99.90
5457;DHT22;2751;49.802;9.944;2023-07-13T08:59:02;26.00;99.90
5457;DHT22;2751;49.802;9.944;2023-07-13T09:01:39;26.20;99.90
5457;DHT22;2751;49.802;9.944;2023-07-13T09:04:14;26.30;99.90
5457;DHT22;2751;49.802;9.944;2023-07-13T09:06:55;26.70;99.90
5457;DHT22;2751;49.802;9.944;2023-07-13T09:09:31;27.70;99.90
5457;DHT22;2751;49.802;9.944;2023-07-13T09:12:09;27.40;99.90
5457;DHT22;2751;49.802;9.944;2023-07-13T09:14:43;27.40;99.90
5457;DHT22;2751;49.802;9.944;2023-07-13T09:17:15;26.70;99.90
5457;DHT22;2751;49.802;9.944;2023-07-13T09:19:47;27.40;99.90
5457;DHT22;2751;49.802;9.944;2023-07-13T09:22:19;28.30;99.90
5457;DHT22;2751;49.802;9.944;2023-07-13T09:24:53;28.70;99.90
5457;DHT22;2751;49.802;9.944;2023-07-13T09:27:27;29.30;99.90
5457;DHT22;2751;49.802;9.944;2023-07-13T09:30:01;29.10;99.90
5457;DHT22;2751;49.802;9.944;2023-07-13T09:32:31;29.60;99.90
5457;DHT22;2751;49.802;9.944;2023-07-13T09:35:01;28.80;99.90
5457;DHT22;2751;49.802;9.944;2023-07-13T09:37:30;28.10;99.90
5457;DHT22;2751;49.802;9.944;2023-07-13T09:39:59;28.90;99.90
5457;DHT22;2751;49.802;9.944;2023-07-13T09:42:31;29.40;99.90
5457;DHT22;2751;49.802;9.944;2023-07-13T09:45:00;29.60;99.90
5457;DHT22;2751;49.802;9.944;2023-07-13T09:47:30;29.70;99.90
5457;DHT22;2751;49.802;9.944;2023-07-13T09:50:01;29.10;99.90
5457;DHT22;2751;49.802;9.944;2023-07-13T09:52:40;29.60;99.90
5457;DHT22;2751;49.802;9.944;2023-07-13T09:55:23;30.40;99.90
5457;DHT22;2751;49.802;9.944;2023-07-13T09:57:50;28.30;99.90
5457;DHT22;2751;49.802;9.944;2023-07-13T10:00:22;27.70;99.90
5457;DHT22;2751;49.802;9.944;2023-07-13T10:02:59;26.50;99.90
5457;DHT22;2751;49.802;9.944;2023-07-13T10:05:28;26.00;99.90
5457;DHT22;2751;49.802;9.944;2023-07-13T10:08:03;26.30;99.90
5457;DHT22;2751;49.802;9.944;2023-07-13T10:10:33;28.20;99.90
5457;DHT22;2751;49.802;9.944;2023-07-13T10:13:01;28.00;99.90
5457;DHT22;2751;49.802;9.944;2023-07-13T10:15:31;28.50;99.90
5457;DHT22;2751;49.802;9.944;2023-07-13T10:17:59;29.60;99.90
5457;DHT22;2751;49.802;9.944;2023-07-13T10:20:28;30.50;99.90
5457;DHT22;2751;49.802;9.944;2023-07-13T10:22:58;30.50;99.90
5457;DHT22;2751;49.802;9.944;2023-07-13T10:25:28;28.90;99.90
5457;DHT22;2751;49.802;9.944;2023-07-13T10:28:02;28.90;99.90
5457;DHT22;2751;49.802;9.944;2023-07-13T10:30:34;28.10;99.90
5457;DHT22;2751;49.802;9.944;2023-07-13T10:33:03;29.70;99.90
5457;DHT22;2751;49.802;9.944;2023-07-13T10:35:40;30.40;99.90
5457;DHT22;2751;49.802;9.944;2023-07-13T10:38:11;29.30;99.90
5457;DHT22;2751;49.802;9.944;2023-07-13T10:40:40;29.20;99.90
5457;DHT22;2751;49.802;9.944;2023-07-13T10:43:13;29.80;99.90
5457;DHT22;2751;49.802;9.944;2023-07-13T10:45:42;30.10;99.90
5457;DHT22;2751;49.802;9.944;2023-07-13T10:48:13;31.00;99.90
5457;DHT22;2751;49.802;9.944;2023-07-13T10:50:44;32.50;99.90
5457;DHT22;2751;49.802;9.944;2023-07-13T10:53:20;30.90;99.90
5457;DHT22;2751;49.802;9.944;2023-07-13T10:55:59;29.20;99.90
5457;DHT22;2751;49.802;9.944;2023-07-13T10:58:34;28.40;99.90
5457;DHT22;2751;49.802;9.944;2023-07-13T11:01:07;29.70;99.90
5457;DHT22;2751;49.802;9.944;2023-07-13T11:03:36;31.20;99.90
5457;DHT22;2751;49.802;9.944;2023-07-13T11:06:09;30.10;99.90
5457;DHT22;2751;49.802;9.944;2023-07-13T11:08:38;29.00;99.90
5457;DHT22;2751;49.802;9.944;2023-07-13T11:11:36;28.80;99.90
5457;DHT22;2751;49.802;9.944;2023-07-13T11:14:04;29.90;99.90
5457;DHT22;2751;49.802;9.944;2023-07-13T11:16:43;30.40;99.90
5457;DHT22;2751;49.802;9.944;2023-07-13T11:19:39;31.90;99.90
5457;DHT22;2751;49.802;9.944;2023-07-13T11:22:15;30.20;99.90
5457;DHT22;2751;49.802;9.944;2023-07-13T11:24:56;30.30;99.90
5457;DHT22;2751;49.802;9.944;2023-07-13T11:27:34;29.40;99.90
5457;DHT22;2751;49.802;9.944;2023-07-13T11:30:31;29.60;99.90
5457;DHT22;2751;49.802;9.944;2023-07-13T11:33:15;31.40;99.90
5457;DHT22;2751;49.802;9.944;2023-07-13T11:35:47;29.40;99.90
5457;DHT22;2751;49.802;9.944;2023-07-13T11:38:20;28.90;99.90
5457;DHT22;2751;49.802;9.944;2023-07-13T11:40:50;27.90;99.90
5457;DHT22;2751;49.802;9.944;2023-07-13T11:43:18;28.40;99.90
5457;DHT22;2751;49.802;9.944;2023-07-13T11:45:47;29.30;99.90
5457;DHT22;2751;49.802;9.944;2023-07-13T11:48:19;28.50;99.90
5457;DHT22;2751;49.802;9.944;2023-07-13T11:50:51;28.00;99.90
5457;DHT22;2751;49.802;9.944;2023-07-13T11:53:21;27.50;99.90
5457;DHT22;2751;49.802;9.944;2023-07-13T11:55:48;27.80;99.90
5457;DHT22;2751;49.802;9.944;2023-07-13T11:58:19;29.40;99.90
5457;DHT22;2751;49.802;9.944;2023-07-13T12:00:48;30.00;99.90
5457;DHT22;2751;49.802;9.944;2023-07-13T12:03:18;29.40;99.90
5457;DHT22;2751;49.802;9.944;2023-07-13T12:05:59;28.70;99.90
5457;DHT22;2751;49.802;9.944;2023-07-13T12:08:28;28.00;99.90
5457;DHT22;2751;49.802;9.944;2023-07-13T12:11:05;27.80;99.90
5457;DHT22;2751;49.802;9.944;2023-07-13T12:13:37;27.90;99.90
5457;DHT22;2751;49.802;9.944;2023-07-13T12:16:12;28.10;99.90
5457;DHT22;2751;49.802;9.944;2023-07-13T12:18:43;28.60;99.90
5457;DHT22;2751;49.802;9.944;2023-07-13T12:21:13;28.80;99.90
5457;DHT22;2751;49.802;9.944;2023-07-13T12:23:44;28.60;99.90
5457;DHT22;2751;49.802;9.944;2023-07-13T12:26:15;28.80;99.90
5457;DHT22;2751;49.802;9.944;2023-07-13T12:28:46;28.60;99.90
5457;DHT22;2751;49.802;9.944;2023-07-13T12:31:29;28.50;99.90
5457;DHT22;2751;49.802;9.944;2023-07-13T12:33:58;28.10;99.90
5457;DHT22;2751;49.802;9.944;2023-07-13T12:36:25;28.00;99.90
5457;DHT22;2751;49.802;9.944;2023-07-13T12:38:57;28.40;99.90
5457;DHT22;2751;49.802;9.944;2023-07-13T12:41:24;29.00;99.90
5457;DHT22;2751;49.802;9.944;2023-07-13T12:43:52;29.40;99.90
5457;DHT22;2751;49.802;9.944;2023-07-13T12:46:21;31.10;99.90
5457;DHT22;2751;49.802;9.944;2023-07-13T12:48:52;30.60;99.90
5457;DHT22;2751;49.802;9.944;2023-07-13T12:51:22;31.00;99.90
5457;DHT22;2751;49.802;9.944;2023-07-13T12:53:58;32.30;99.90
5457;DHT22;2751;49.802;9.944;2023-07-13T12:56:27;32.40;99.90
5457;DHT22;2751;49.802;9.944;2023-07-13T12:58:58;32.10;99.90
5457;DHT22;2751;49.802;9.944;2023-07-13T13:01:28;31.70;99.90
5457;DHT22;2751;49.802;9.944;2023-07-13T13:03:55;31.10;99.90
5457;DHT22;2751;49.802;9.944;2023-07-13T13:06:25;30.60;99.90
5457;DHT22;2751;49.802;9.944;2023-07-13T13:08:54;29.70;99.90
5457;DHT22;2751;49.802;9.944;2023-07-13T13:11:24;29.40;99.90
5457;DHT22;2751;49.802;9.944;2023-07-13T13:13:52;28.50;99.90
5457;DHT22;2751;49.802;9.944;2023-07-13T13:16:21;28.40;99.90
5457;DHT22;2751;49.802;9.944;2023-07-13T13:18:49;28.60;99.90
5457;DHT22;2751;49.802;9.944;2023-07-13T13:21:17;28.80;99.90
5457;DHT22;2751;49.802;9.944;2023-07-13T13:23:45;28.20;99.90
5457;DHT22;2751;49.802;9.944;2023-07-13T13:26:13;27.80;99.90
5457;DHT22;2751;49.802;9.944;2023-07-13T13:28:42;27.60;99.90
5457;DHT22;2751;49.802;9.944;2023-07-13T13:31:11;27.40;99.90
5457;DHT22;2751;49.802;9.944;2023-07-13T13:33:39;27.30;99.90
5457;DHT22;2751;49.802;9.944;2023-07-13T13:36:14;27.10;99.90
5457;DHT22;2751;49.802;9.944;2023-07-13T13:38:42;27.90;99.90
5457;DHT22;2751;49.802;9.944;2023-07-13T13:41:10;28.30;99.90
5457;DHT22;2751;49.802;9.944;2023-07-13T13:43:39;28.10;99.90
5457;DHT22;2751;49.802;9.944;2023-07-13T13:46:14;28.30;99.90
5457;DHT22;2751;49.802;9.944;2023-07-13T13:48:42;28.60;99.90
5457;DHT22;2751;49.802;9.944;2023-07-13T13:51:15;28.50;99.90
5457;DHT22;2751;49.802;9.944;2023-07-13T13:53:43;28.20;99.90
5457;DHT22;2751;49.802;9.944;2023-07-13T13:56:11;28.00;99.90
5457;DHT22;2751;49.802;9.944;2023-07-13T13:58:38;28.00;99.90
5457;DHT22;2751;49.802;9.944;2023-07-13T14:01:10;28.30;99.90
5457;DHT22;2751;49.802;9.944;2023-07-13T14:03:40;28.20;99.90
5457;DHT22;2751;49.802;9.944;2023-07-13T14:06:09;27.90;99.90
5457;DHT22;2751;49.802;9.944;2023-07-13T14:08:37;29.20;99.90
5457;DHT22;2751;49.802;9.944;2023-07-13T14:11:05;31.40;99.90
5457;DHT22;2751;49.802;9.944;2023-07-13T14:13:35;31.90;99.90
5457;DHT22;2751;49.802;9.944;2023-07-13T14:16:04;31.30;99.90
5457;DHT22;2751;49.802;9.944;2023-07-13T14:18:35;30.40;99.90
5457;DHT22;2751;49.802;9.944;2023-07-13T14:21:02;29.40;99.90
5457;DHT22;2751;49.802;9.944;2023-07-13T14:23:29;28.70;99.90
5457;DHT22;2751;49.802;9.944;2023-07-13T14:25:56;28.40;99.90
5457;DHT22;2751;49.802;9.944;2023-07-13T14:28:24;28.10;99.90
5457;DHT22;2751;49.802;9.944;2023-07-13T14:30:52;27.50;99.90
5457;DHT22;2751;49.802;9.944;2023-07-13T14:33:20;27.10;99.90
5457;DHT22;2751;49.802;9.944;2023-07-13T14:35:49;27.00;99.90
5457;DHT22;2751;49.802;9.944;2023-07-13T14:38:19;27.10;99.90
5457;DHT22;2751;49.802;9.944;2023-07-13T14:40:46;27.50;99.90
5457;DHT22;2751;49.802;9.944;2023-07-13T14:43:14;29.20;99.90
5457;DHT22;2751;49.802;9.944;2023-07-13T14:45:44;30.70;99.90
5457;DHT22;2751;49.802;9.944;2023-07-13T14:48:15;31.40;99.90
5457;DHT22;2751;49.802;9.944;2023-07-13T14:50:42;32.00;99.90
5457;DHT22;2751;49.802;9.944;2023-07-13T14:53:13;30.80;99.90
5457;DHT22;2751;49.802;9.944;2023-07-13T14:55:40;29.80;99.90
5457;DHT22;2751;49.802;9.944;2023-07-13T14:58:08;29.20;99.90
5457;DHT22;2751;49.802;9.944;2023-07-13T15:00:35;30.10;99.90
5457;DHT22;2751;49.802;9.944;2023-07-13T15:03:04;31.30;99.90
5457;DHT22;2751;49.802;9.944;2023-07-13T15:05:32;32.20;99.90
5457;DHT22;2751;49.802;9.944;2023-07-13T15:08:01;33.00;99.90
5457;DHT22;2751;49.802;9.944;2023-07-13T15:10:32;33.30;99.90
5457;DHT22;2751;49.802;9.944;2023-07-13T15:13:00;31.30;99.90
5457;DHT22;2751;49.802;9.944;2023-07-13T15:15:31;29.90;99.90
5457;DHT22;2751;49.802;9.944;2023-07-13T15:17:59;29.20;99.90
5457;DHT22;2751;49.802;9.944;2023-07-13T15:20:29;28.80;99.90
5457;DHT22;2751;49.802;9.944;2023-07-13T15:22:57;28.30;99.90
5457;DHT22;2751;49.802;9.944;2023-07-13T15:25:26;28.10;99.90
5457;DHT22;2751;49.802;9.944;2023-07-13T15:27:56;28.00;99.90
5457;DHT22;2751;49.802;9.944;2023-07-13T15:30:25;28.70;99.90
5457;DHT22;2751;49.802;9.944;2023-07-13T15:32:54;30.20;99.90
5457;DHT22;2751;49.802;9.944;2023-07-13T15:35:25;30.10;99.90
5457;DHT22;2751;49.802;9.944;2023-07-13T15:37:54;30.10;99.90
5457;DHT22;2751;49.802;9.944;2023-07-13T15:40:22;29.80;99.90
5457;DHT22;2751;49.802;9.944;2023-07-13T15:42:50;29.80;99.90
5457;DHT22;2751;49.802;9.944;2023-07-13T15:45:20;30.30;99.90
5457;DHT22;2751;49.802;9.944;2023-07-13T15:47:48;29.30;99.90
5457;DHT22;2751;49.802;9.944;2023-07-13T15:50:18;28.40;99.90
5457;DHT22;2751;49.802;9.944;2023-07-13T15:52:47;28.40;99.90
5457;DHT22;2751;49.802;9.944;2023-07-13T15:55:15;29.00;99.90
5457;DHT22;2751;49.802;9.944;2023-07-13T15:57:46;30.40;99.90
5457;DHT22;2751;49.802;9.944;2023-07-13T16:00:20;30.50;99.90
5457;DHT22;2751;49.802;9.944;2023-07-13T16:02:48;30.40;99.90
5457;DHT22;2751;49.802;9.944;2023-07-13T16:05:16;30.70;99.90
5457;DHT22;2751;49.802;9.944;2023-07-13T16:07:43;30.40;99.90
5457;DHT22;2751;49.802;9.944;2023-07-13T16:10:16;29.80;99.90
5457;DHT22;2751;49.802;9.944;2023-07-13T16:12:44;30.30;99.90
5457;DHT22;2751;49.802;9.944;2023-07-13T16:15:16;31.00;99.90